Time;durP1;ratioP1;P1;durP2;ratioP2;P2;SDS_P1;SDS_P2;PMS_P1;PMS_P2;Temp;Humidity;BMP_temperature;BMP_pressure;BME280_temperature;BME280_humidity;BME280_pressure;Samples;Min_cycle;Max_cycle;Signal;HPM_P1;HPM_P2
2022/07/21 00:00:27;;;;;;;14.25;7.05;;;21.90;99.90;;;;;;5072769;28;20033;-73
2022/07/21 00:02:53;;;;;;;10.15;6.30;;;21.90;99.90;;;;;;5072708;28;20123;-73
2022/07/21 00:05:20;;;;;;;13.90;6.65;;;21.80;99.90;;;;;;5055976;28;20037;-73
2022/07/21 00:07:46;;;;;;;12.40;7.25;;;21.80;99.90;;;;;;5072633;28;20040;-73
2022/07/21 00:10:13;;;;;;;12.60;7.32;;;21.80;99.90;;;;;;5072556;28;20032;-73
2022/07/21 00:12:38;;;;;;;14.63;8.10;;;21.70;99.90;;;;;;5056212;28;20037;-73
2022/07/21 00:15:05;;;;;;;15.88;8.15;;;21.60;99.90;;;;;;5055744;28;20043;-74
2022/07/21 00:17:31;;;;;;;14.43;8.60;;;21.60;99.90;;;;;;5072477;28;20032;-74
2022/07/21 00:19:56;;;;;;;13.50;8.77;;;21.50;99.90;;;;;;5072591;28;20041;-74
2022/07/21 00:22:22;;;;;;;13.80;8.93;;;21.50;99.90;;;;;;5055773;28;20052;-74
2022/07/21 00:24:48;;;;;;;13.05;8.20;;;21.40;99.90;;;;;;5072314;28;20150;-74
2022/07/21 00:27:13;;;;;;;13.20;8.77;;;21.40;99.90;;;;;;5072548;28;20044;-74
2022/07/21 00:29:39;;;;;;;15.10;9.65;;;21.40;99.90;;;;;;5072174;28;20047;-74
2022/07/21 00:32:05;;;;;;;12.55;8.50;;;21.40;99.90;;;;;;5072199;28;20033;-74
2022/07/21 00:34:32;;;;;;;14.68;9.35;;;21.40;99.90;;;;;;5072129;28;20044;-74
2022/07/21 00:36:57;;;;;;;15.13;9.45;;;21.40;99.90;;;;;;5072424;28;20028;-74
2022/07/21 00:39:23;;;;;;;13.85;9.77;;;21.40;99.90;;;;;;5055756;28;20400;-74
2022/07/21 00:41:49;;;;;;;18.30;10.32;;;21.30;99.90;;;;;;5072065;28;20040;-74
2022/07/21 00:44:23;;;;;;;15.10;9.73;;;21.30;99.90;;;;;;5072062;28;20090;-74
2022/07/21 00:46:49;;;;;;;15.15;9.38;;;21.30;99.90;;;;;;5072030;28;20043;-74
2022/07/21 00:49:15;;;;;;;14.52;9.77;;;21.30;99.90;;;;;;5071930;28;20041;-74
2022/07/21 00:51:41;;;;;;;12.80;9.55;;;21.20;99.90;;;;;;5072266;28;20040;-74
2022/07/21 00:54:06;;;;;;;12.48;9.02;;;21.10;99.90;;;;;;5071865;28;20493;-74
2022/07/21 00:56:32;;;;;;;12.98;8.73;;;21.10;99.90;;;;;;5071956;28;20059;-74
2022/07/21 00:58:58;;;;;;;20.17;10.40;;;21.10;99.90;;;;;;5072149;28;20044;-74
2022/07/21 01:01:23;;;;;;;17.25;9.70;;;21.10;99.90;;;;;;5055330;28;20493;-74
2022/07/21 01:03:49;;;;;;;13.68;8.50;;;21.00;99.90;;;;;;5071782;28;20040;-74
2022/07/21 01:06:15;;;;;;;17.65;10.70;;;21.10;99.90;;;;;;5071808;28;20109;-74
2022/07/21 01:08:40;;;;;;;17.35;10.40;;;21.10;99.90;;;;;;5071902;28;20040;-74
2022/07/21 01:11:06;;;;;;;15.73;9.30;;;21.10;99.90;;;;;;5055097;28;20043;-74
2022/07/21 01:13:32;;;;;;;15.90;10.15;;;21.00;99.90;;;;;;5071660;28;20029;-74
2022/07/21 01:15:58;;;;;;;13.20;9.40;;;21.00;99.90;;;;;;5071661;28;20036;-74
2022/07/21 01:18:24;;;;;;;14.18;9.80;;;21.00;99.90;;;;;;5071611;28;20118;-74
2022/07/21 01:20:53;;;;;;;16.17;10.25;;;21.00;99.90;;;;;;5054957;28;20523;-74
2022/07/21 01:23:20;;;;;;;17.73;11.02;;;21.00;99.90;;;;;;5071573;28;20086;-74
2022/07/21 01:25:51;;;;;;;15.60;10.35;;;21.00;99.90;;;;;;5071575;28;20049;-74
2022/07/21 01:28:17;;;;;;;15.27;11.00;;;21.00;99.90;;;;;;5071490;28;20045;-74
2022/07/21 01:30:43;;;;;;;16.42;11.02;;;20.90;99.90;;;;;;5055097;28;20123;-74
2022/07/21 01:33:09;;;;;;;15.40;10.27;;;20.90;99.90;;;;;;5071516;28;20036;-74
2022/07/21 01:35:34;;;;;;;17.40;11.48;;;20.90;99.90;;;;;;5054846;28;20034;-74
2022/07/21 01:38:00;;;;;;;15.50;10.35;;;20.90;99.90;;;;;;5071493;28;20123;-74
2022/07/21 01:43:10;;;;;;;16.30;10.48;;;20.90;99.90;;;;;;5071402;28;20041;-74
2022/07/21 01:45:36;;;;;;;15.57;11.48;;;20.80;99.90;;;;;;5071383;28;20039;-74
2022/07/21 01:48:04;;;;;;;15.13;10.95;;;20.80;99.90;;;;;;5054678;28;20067;-74
2022/07/21 01:50:30;;;;;;;17.02;11.38;;;20.80;99.90;;;;;;5071633;28;20115;-74
2022/07/21 01:52:56;;;;;;;16.27;10.25;;;20.80;99.90;;;;;;5071359;28;20565;-73
2022/07/21 01:55:24;;;;;;;16.27;10.65;;;20.80;99.90;;;;;;5054906;28;20075;-74
2022/07/21 01:57:50;;;;;;;19.17;12.85;;;20.80;99.90;;;;;;5071402;28;20041;-74
2022/07/21 02:00:16;;;;;;;18.35;11.25;;;20.70;99.90;;;;;;5054931;28;20044;-74
2022/07/21 02:02:42;;;;;;;20.95;12.25;;;20.80;99.90;;;;;;5054875;28;20044;-74
2022/07/21 02:05:08;;;;;;;17.00;11.18;;;20.70;99.90;;;;;;5071458;28;20036;-74
2022/07/21 02:07:34;;;;;;;17.65;11.50;;;20.70;99.90;;;;;;5071205;28;20562;-74
2022/07/21 02:09:59;;;;;;;16.60;10.43;;;20.70;99.90;;;;;;5071207;28;20037;-74
2022/07/21 02:12:25;;;;;;;19.25;12.02;;;20.70;99.90;;;;;;5072605;28;20036;-74
2022/07/21 02:14:51;;;;;;;18.60;12.02;;;20.60;99.90;;;;;;5058386;28;20393;-74
2022/07/21 02:17:16;;;;;;;16.90;12.00;;;20.60;99.90;;;;;;5074780;28;20415;-74
2022/07/21 02:19:42;;;;;;;14.68;10.77;;;20.60;99.90;;;;;;5058118;28;20040;-74
2022/07/21 02:22:08;;;;;;;16.77;12.52;;;20.60;99.90;;;;;;5074700;28;20036;-74
2022/07/21 02:24:34;;;;;;;14.95;11.13;;;20.60;99.90;;;;;;5057999;28;20036;-74
2022/07/21 02:27:01;;;;;;;14.82;11.57;;;20.50;99.90;;;;;;5075046;28;20147;-74
2022/07/21 02:29:27;;;;;;;15.23;11.15;;;20.50;99.90;;;;;;5074540;28;20080;-74
2022/07/21 02:31:52;;;;;;;17.67;12.90;;;20.50;99.90;;;;;;5074579;28;20113;-74
2022/07/21 02:34:18;;;;;;;14.77;11.68;;;20.50;99.90;;;;;;5074462;28;20044;-74
2022/07/21 02:36:44;;;;;;;14.80;10.98;;;20.50;99.90;;;;;;5074702;28;20082;-74
2022/07/21 02:39:10;;;;;;;14.80;11.95;;;20.40;99.90;;;;;;5057742;28;20493;-74
2022/07/21 02:41:35;;;;;;;17.63;11.35;;;20.40;99.90;;;;;;5074626;28;20131;-74
2022/07/21 02:44:01;;;;;;;16.65;11.82;;;20.40;99.90;;;;;;5074220;28;20044;-74
2022/07/21 02:46:26;;;;;;;15.40;11.95;;;20.40;99.90;;;;;;5074294;28;20066;-74
2022/07/21 02:48:52;;;;;;;13.60;12.20;;;20.40;99.90;;;;;;5074162;28;20090;-74
2022/07/21 02:51:18;;;;;;;15.75;11.57;;;20.40;99.90;;;;;;5057460;28;20032;-74
2022/07/21 02:53:43;;;;;;;14.27;11.27;;;20.40;99.90;;;;;;5074321;28;20032;-74
2022/07/21 02:56:09;;;;;;;16.83;12.90;;;20.40;99.90;;;;;;5057401;28;20408;-74
2022/07/21 02:58:34;;;;;;;16.65;13.43;;;20.40;99.90;;;;;;5057609;28;20093;-74
2022/07/21 03:01:03;;;;;;;16.52;12.95;;;20.40;99.90;;;;;;5074066;28;20523;-74
2022/07/21 03:03:32;;;;;;;16.80;12.80;;;20.30;99.90;;;;;;5073925;28;20040;-74
2022/07/21 03:05:58;;;;;;;17.20;12.23;;;20.30;99.90;;;;;;5057192;28;20046;-74
2022/07/21 03:08:25;;;;;;;17.33;12.30;;;20.30;99.90;;;;;;5073793;28;20047;-74
2022/07/21 03:10:51;;;;;;;15.60;12.63;;;20.30;99.90;;;;;;5073838;28;20044;-74
2022/07/21 03:13:17;;;;;;;17.70;13.27;;;20.30;99.90;;;;;;5073708;28;20041;-74
2022/07/21 03:15:43;;;;;;;16.60;13.68;;;20.30;99.90;;;;;;5073783;28;20078;-74
2022/07/21 03:18:09;;;;;;;16.75;12.73;;;20.30;99.90;;;;;;5073557;28;20033;-74
2022/07/21 03:20:36;;;;;;;19.05;12.70;;;20.30;99.90;;;;;;5057003;28;20033;-74
2022/07/21 03:23:02;;;;;;;19.40;12.40;;;20.30;99.90;;;;;;5073112;28;20041;-74
2022/07/21 03:25:28;;;;;;;17.42;13.63;;;20.30;99.90;;;;;;5056145;28;20033;-74
2022/07/21 03:27:55;;;;;;;16.20;12.40;;;20.30;99.90;;;;;;5073461;28;20044;-74
2022/07/21 03:30:21;;;;;;;13.20;11.88;;;20.30;99.90;;;;;;5073345;28;20410;-74
2022/07/21 03:32:48;;;;;;;16.77;13.63;;;20.30;99.90;;;;;;5073440;28;20037;-74
2022/07/21 03:35:14;;;;;;;14.68;12.75;;;20.30;99.90;;;;;;5056911;28;20502;-73
2022/07/21 03:37:41;;;;;;;14.32;12.82;;;20.20;99.90;;;;;;5073291;28;20555;-73
2022/07/21 03:40:07;;;;;;;17.48;13.10;;;20.20;99.90;;;;;;5073455;28;20048;-73
2022/07/21 03:42:33;;;;;;;16.42;13.85;;;20.20;99.90;;;;;;5073416;28;20583;-74
2022/07/21 03:44:58;;;;;;;19.23;12.88;;;20.20;99.90;;;;;;5073083;28;20054;-74
2022/07/21 03:47:24;;;;;;;14.23;12.73;;;20.20;99.90;;;;;;5073135;28;20040;-74
2022/07/21 03:49:49;;;;;;;16.00;14.35;;;20.20;99.90;;;;;;5056344;28;20063;-74
2022/07/21 03:52:15;;;;;;;18.27;15.10;;;20.20;99.90;;;;;;5057234;28;20354;-74
2022/07/21 03:54:40;;;;;;;15.77;14.05;;;20.20;99.90;;;;;;5056295;28;20066;-74
2022/07/21 03:57:06;;;;;;;18.77;14.25;;;20.10;99.90;;;;;;5073152;28;20040;-74
2022/07/21 03:59:32;;;;;;;16.50;14.57;;;20.20;99.90;;;;;;5072855;28;20413;-74
2022/07/21 04:01:57;;;;;;;16.45;14.02;;;20.10;99.90;;;;;;5072780;28;20047;-74
2022/07/21 04:04:23;;;;;;;17.35;15.52;;;20.20;99.90;;;;;;5056127;28;20094;-74
2022/07/21 04:06:48;;;;;;;21.05;15.98;;;20.20;99.90;;;;;;5072871;28;20118;-74
2022/07/21 04:09:14;;;;;;;17.15;15.35;;;20.10;99.90;;;;;;5072589;28;20119;-74
2022/07/21 04:11:39;;;;;;;17.13;15.30;;;20.10;99.90;;;;;;5072612;28;20032;-74
2022/07/21 04:14:05;;;;;;;18.83;16.90;;;20.10;99.90;;;;;;5072504;28;20123;-74
2022/07/21 04:16:30;;;;;;;20.38;16.73;;;20.10;99.90;;;;;;5056156;28;20033;-74
2022/07/21 04:18:56;;;;;;;21.15;17.13;;;20.10;99.90;;;;;;5072585;28;20048;-74
2022/07/21 04:21:21;;;;;;;21.80;19.33;;;20.10;99.90;;;;;;5056082;28;20458;-74
2022/07/21 04:23:47;;;;;;;22.92;20.40;;;20.10;99.90;;;;;;5072356;28;20416;-74
2022/07/21 04:26:13;;;;;;;23.50;21.10;;;20.20;99.90;;;;;;5072407;28;20036;-74
2022/07/21 04:28:38;;;;;;;29.65;26.55;;;20.20;99.90;;;;;;5056112;28;20087;-74
2022/07/21 04:31:04;;;;;;;27.15;24.25;;;20.20;99.90;;;;;;5055936;28;20036;-74
2022/07/21 04:33:29;;;;;;;27.73;24.08;;;20.20;99.90;;;;;;5055843;28;20037;-74
2022/07/21 04:35:55;;;;;;;28.40;25.38;;;20.20;99.90;;;;;;5071835;28;20432;-74
2022/07/21 04:38:20;;;;;;;26.90;24.23;;;20.20;99.90;;;;;;5055853;28;20040;-74
2022/07/21 04:40:46;;;;;;;28.92;25.85;;;20.20;99.90;;;;;;5072151;28;20044;-74
2022/07/21 04:43:12;;;;;;;31.00;27.70;;;20.20;99.90;;;;;;5072047;28;20062;-74
2022/07/21 04:45:37;;;;;;;35.30;29.55;;;20.20;99.90;;;;;;5072292;28;20035;-74
2022/07/21 04:48:03;;;;;;;31.75;28.45;;;20.20;99.90;;;;;;5071984;28;20501;-74
2022/07/21 04:50:29;;;;;;;29.35;26.40;;;20.30;99.90;;;;;;5072038;28;20130;-74
2022/07/21 04:52:55;;;;;;;29.75;26.65;;;20.20;99.90;;;;;;5071984;28;20139;-74
2022/07/21 04:55:21;;;;;;;27.75;25.08;;;20.30;99.90;;;;;;5055429;28;20032;-74
2022/07/21 04:57:49;;;;;;;28.33;25.42;;;20.30;99.90;;;;;;5071903;28;20039;-74
2022/07/21 05:00:17;;;;;;;26.75;24.02;;;20.30;99.90;;;;;;5071893;28;20461;-74
2022/07/21 05:02:46;;;;;;;28.67;25.60;;;20.40;99.90;;;;;;5072132;28;20048;-74
2022/07/21 05:05:12;;;;;;;30.50;25.95;;;20.40;99.90;;;;;;5055119;28;20119;-74
2022/07/21 05:07:38;;;;;;;28.98;25.90;;;20.40;99.90;;;;;;5072397;28;20086;-74
2022/07/21 05:10:06;;;;;;;30.48;27.27;;;20.40;99.90;;;;;;5071802;28;20482;-74
2022/07/21 05:12:32;;;;;;;29.85;26.33;;;20.40;99.90;;;;;;5054994;28;20068;-74
2022/07/21 05:14:57;;;;;;;29.98;26.73;;;20.40;99.90;;;;;;5071679;28;20071;-74
2022/07/21 05:17:23;;;;;;;30.20;27.20;;;20.40;99.90;;;;;;5071741;28;20086;-74
2022/07/21 05:19:50;;;;;;;30.42;27.33;;;20.40;99.90;;;;;;5071584;28;20059;-74
2022/07/21 05:22:16;;;;;;;30.35;27.27;;;20.40;99.90;;;;;;5071678;28;20490;-74
2022/07/21 05:24:42;;;;;;;29.98;26.98;;;20.40;99.90;;;;;;5071763;28;20492;-74
2022/07/21 05:27:08;;;;;;;30.92;27.67;;;20.40;99.90;;;;;;5054872;28;20032;-74
2022/07/21 05:29:33;;;;;;;31.95;27.80;;;20.40;99.90;;;;;;5071555;28;20041;-74
2022/07/21 05:31:59;;;;;;;35.25;30.40;;;20.50;99.90;;;;;;5071617;28;20036;-74
2022/07/21 05:34:24;;;;;;;32.53;29.25;;;20.50;99.90;;;;;;5071749;28;20125;-74
2022/07/21 05:36:50;;;;;;;33.05;29.63;;;20.50;99.90;;;;;;5071771;28;20485;-74
2022/07/21 05:39:15;;;;;;;36.67;31.90;;;20.50;99.90;;;;;;5071568;28;20496;-74
2022/07/21 05:41:41;;;;;;;34.00;30.60;;;20.50;99.90;;;;;;5071549;28;20389;-74
2022/07/21 05:44:06;;;;;;;33.63;30.02;;;20.50;99.90;;;;;;5071475;28;20052;-74
2022/07/21 05:46:32;;;;;;;35.83;30.98;;;20.60;99.90;;;;;;5071786;28;20048;-74
2022/07/21 05:48:57;;;;;;;33.85;30.35;;;20.60;99.90;;;;;;5075087;28;20587;-74
2022/07/21 05:51:23;;;;;;;34.22;30.55;;;20.60;99.90;;;;;;5075538;28;20102;-74
2022/07/21 05:53:49;;;;;;;33.25;29.85;;;20.60;99.90;;;;;;5058456;28;20493;-74
2022/07/21 05:56:14;;;;;;;31.73;28.35;;;20.60;99.90;;;;;;5075178;28;20044;-74
2022/07/21 05:58:40;;;;;;;31.30;28.20;;;20.60;99.90;;;;;;5075922;28;20070;-75
2022/07/21 06:01:08;;;;;;;27.83;24.88;;;20.70;99.90;;;;;;5075209;28;20459;-74
2022/07/21 06:03:39;;;;;;;29.10;26.00;;;20.70;99.90;;;;;;5058320;28;20493;-73
2022/07/21 06:06:05;;;;;;;28.30;25.50;;;20.90;99.90;;;;;;5075024;28;20076;-74
2022/07/21 06:08:31;;;;;;;27.13;24.63;;;20.90;99.90;;;;;;5074919;28;20095;-74
2022/07/21 06:10:57;;;;;;;27.67;24.77;;;20.90;99.90;;;;;;5074962;28;20036;-74
2022/07/21 06:13:22;;;;;;;26.95;24.35;;;21.00;99.90;;;;;;5074817;28;20032;-74
2022/07/21 06:15:48;;;;;;;25.55;23.02;;;21.00;99.90;;;;;;5058215;28;20052;-74
2022/07/21 06:18:14;;;;;;;24.65;22.15;;;21.10;99.90;;;;;;5074999;28;20036;-74
2022/07/21 06:20:41;;;;;;;25.00;22.40;;;21.00;99.90;;;;;;5058088;28;20036;-74
2022/07/21 06:23:06;;;;;;;24.67;22.27;;;21.10;99.90;;;;;;5074599;28;20047;-73
2022/07/21 06:25:32;;;;;;;23.13;20.95;;;21.00;99.90;;;;;;5074700;28;20037;-73
2022/07/21 06:27:58;;;;;;;23.90;21.42;;;21.10;99.90;;;;;;5074666;28;20063;-73
2022/07/21 06:30:23;;;;;;;25.40;22.85;;;21.00;99.90;;;;;;5074596;28;20045;-73
2022/07/21 06:32:49;;;;;;;24.40;21.75;;;21.00;99.90;;;;;;5074550;28;20098;-74
2022/07/21 06:35:15;;;;;;;23.77;21.30;;;21.00;99.90;;;;;;5057828;28;20039;-74
2022/07/21 06:37:45;;;;;;;24.70;22.20;;;21.00;99.90;;;;;;5074462;28;20043;-74
2022/07/21 06:40:12;;;;;;;25.75;23.15;;;21.00;99.90;;;;;;5057787;28;20047;-74
2022/07/21 06:42:37;;;;;;;25.25;22.63;;;20.90;99.90;;;;;;5074442;28;20131;-74
2022/07/21 06:45:03;;;;;;;23.40;21.10;;;20.90;99.90;;;;;;5074283;28;20095;-74
2022/07/21 06:47:29;;;;;;;24.75;20.45;;;20.90;99.90;;;;;;5074296;28;20559;-74
2022/07/21 06:49:55;;;;;;;23.70;20.80;;;20.90;99.90;;;;;;5074271;28;20079;-74
2022/07/21 06:52:21;;;;;;;25.80;23.25;;;20.90;99.90;;;;;;5074239;28;20087;-74
2022/07/21 06:54:46;;;;;;;27.70;25.10;;;20.90;99.90;;;;;;5057642;28;20039;-74
2022/07/21 06:57:13;;;;;;;24.45;22.05;;;20.90;99.90;;;;;;5074134;28;20412;-74
2022/07/21 06:59:39;;;;;;;27.05;24.38;;;21.00;99.90;;;;;;5073806;28;20048;-74
2022/07/21 07:02:05;;;;;;;28.23;25.30;;;21.00;99.90;;;;;;5074065;28;20128;-74
2022/07/21 07:04:30;;;;;;;28.50;25.75;;;21.10;99.90;;;;;;5073934;28;20098;-74
2022/07/21 07:06:56;;;;;;;28.98;26.10;;;21.10;99.90;;;;;;5074069;28;20124;-74
2022/07/21 07:09:23;;;;;;;29.13;23.55;;;21.10;99.90;;;;;;5073946;28;20107;-74
2022/07/21 07:11:51;;;;;;;29.40;26.33;;;21.10;99.90;;;;;;5073961;28;20045;-74
2022/07/21 07:14:17;;;;;;;29.23;26.50;;;21.10;99.90;;;;;;5073753;28;20512;-74
2022/07/21 07:16:43;;;;;;;30.98;27.95;;;21.00;99.90;;;;;;5074185;28;20058;-74
2022/07/21 07:19:09;;;;;;;30.70;27.73;;;21.10;99.90;;;;;;5073523;28;20516;-74
2022/07/21 07:21:34;;;;;;;88.63;41.13;;;21.10;99.90;;;;;;5073901;28;20040;-74
2022/07/21 07:24:01;;;;;;;29.63;26.08;;;21.20;99.90;;;;;;5056915;28;20051;-75
2022/07/21 07:26:28;;;;;;;30.90;27.67;;;21.20;99.90;;;;;;5056882;28;20044;-74
2022/07/21 07:28:53;;;;;;;29.33;26.20;;;21.30;99.90;;;;;;5056726;28;20417;-75
2022/07/21 07:31:19;;;;;;;28.75;25.77;;;21.40;99.90;;;;;;5056806;28;20036;-75
2022/07/21 07:33:45;;;;;;;28.02;24.95;;;21.50;99.90;;;;;;5056714;28;20119;-75
2022/07/21 07:36:12;;;;;;;32.33;28.90;;;21.50;99.90;;;;;;5073345;28;20039;-75
2022/07/21 07:38:41;;;;;;;31.25;28.08;;;21.50;99.90;;;;;;5056905;28;20057;-75
2022/07/21 07:41:07;;;;;;;31.73;28.10;;;21.60;99.90;;;;;;5073272;28;20040;-75
2022/07/21 07:43:32;;;;;;;31.20;26.92;;;21.60;99.90;;;;;;5056556;28;20046;-74
2022/07/21 07:46:00;;;;;;;30.05;26.95;;;21.60;99.90;;;;;;5056821;28;20041;-75
2022/07/21 07:48:25;;;;;;;32.03;28.73;;;21.60;99.90;;;;;;5056324;28;20416;-75
2022/07/21 07:50:51;;;;;;;31.52;28.33;;;21.60;99.90;;;;;;5072993;28;20044;-74
2022/07/21 07:53:16;;;;;;;30.55;27.52;;;21.70;99.90;;;;;;5073084;28;20044;-74
2022/07/21 07:55:42;;;;;;;32.58;29.23;;;21.60;99.90;;;;;;5072950;28;20101;-73
2022/07/21 07:58:08;;;;;;;32.78;29.20;;;21.70;99.90;;;;;;5056309;28;20118;-74
2022/07/21 08:00:33;;;;;;;31.48;28.20;;;21.70;99.90;;;;;;5073127;28;20036;-74
2022/07/21 08:02:59;;;;;;;31.10;27.98;;;21.70;99.90;;;;;;5072796;28;20512;-73
2022/07/21 08:05:24;;;;;;;34.05;30.52;;;21.80;99.90;;;;;;5073061;28;20041;-73
2022/07/21 08:07:50;;;;;;;32.60;29.45;;;21.90;99.90;;;;;;5072722;28;20040;-73
2022/07/21 08:10:16;;;;;;;32.35;29.00;;;21.90;99.90;;;;;;5071962;28;20072;-73
2022/07/21 08:12:41;;;;;;;32.20;28.98;;;21.90;99.90;;;;;;5073927;28;20101;-73
2022/07/21 08:15:08;;;;;;;33.50;29.98;;;22.00;99.90;;;;;;5072744;28;20119;-73
2022/07/21 08:17:34;;;;;;;34.25;30.77;;;22.00;99.90;;;;;;5055847;28;20033;-74
2022/07/21 08:19:59;;;;;;;32.90;29.50;;;22.10;99.90;;;;;;5072437;28;20036;-73
2022/07/21 08:22:25;;;;;;;31.05;28.05;;;22.40;99.90;;;;;;5072519;28;20062;-73
2022/07/21 08:24:50;;;;;;;34.00;29.35;;;22.50;99.90;;;;;;5072545;28;20036;-73
2022/07/21 08:27:16;;;;;;;32.30;28.63;;;22.50;99.90;;;;;;5055728;28;20483;-73
2022/07/21 08:29:41;;;;;;;30.40;27.30;;;22.50;99.90;;;;;;5072283;28;20036;-73
2022/07/21 08:32:07;;;;;;;30.55;27.02;;;22.60;99.90;;;;;;5072284;28;20040;-73
2022/07/21 08:34:33;;;;;;;29.52;26.42;;;22.60;99.90;;;;;;5055532;28;20078;-73
2022/07/21 08:36:58;;;;;;;29.98;27.08;;;22.60;99.90;;;;;;5072215;28;20032;-73
2022/07/21 08:39:24;;;;;;;26.80;24.05;;;22.60;99.90;;;;;;5072469;28;20142;-73
2022/07/21 08:41:51;;;;;;;28.33;25.33;;;22.70;99.90;;;;;;5072414;28;20047;-73
2022/07/21 08:44:17;;;;;;;27.35;24.75;;;22.80;99.90;;;;;;5072272;28;20050;-73
2022/07/21 08:46:48;;;;;;;27.45;24.80;;;22.80;99.90;;;;;;5055419;28;20414;-73
2022/07/21 08:49:13;;;;;;;25.48;22.92;;;23.00;99.90;;;;;;5072138;28;20107;-72
2022/07/21 08:51:39;;;;;;;25.63;23.30;;;23.00;99.90;;;;;;5071950;28;20543;-73
2022/07/21 08:54:05;;;;;;;25.80;23.15;;;23.40;99.90;;;;;;5072075;28;20036;-73
2022/07/21 08:56:30;;;;;;;24.50;22.13;;;23.70;99.90;;;;;;5071903;28;20047;-73
2022/07/21 08:58:56;;;;;;;25.60;23.10;;;23.80;99.90;;;;;;5071876;28;20128;-72
2022/07/21 09:01:26;;;;;;;27.95;24.88;;;23.80;99.90;;;;;;5071850;28;20123;-72
2022/07/21 09:03:52;;;;;;;27.48;24.77;;;23.70;99.90;;;;;;5071726;28;20048;-72
2022/07/21 09:06:18;;;;;;;27.42;24.45;;;23.60;99.90;;;;;;5072102;28;20049;-73
2022/07/21 09:08:46;;;;;;;27.08;24.17;;;23.60;99.90;;;;;;5054994;28;20409;-73
2022/07/21 09:11:22;;;;;;;24.55;22.05;;;23.60;99.90;;;;;;5072013;28;20107;-73
2022/07/21 09:14:09;;;;;;;25.60;23.13;;;23.70;99.90;;;;;;5071956;28;20048;-72
2022/07/21 09:16:40;;;;;;;26.95;24.30;;;23.70;99.90;;;;;;5071772;28;20033;-73
2022/07/21 09:19:06;;;;;;;23.67;21.27;;;23.70;99.90;;;;;;5054858;28;20080;-73
2022/07/21 09:21:34;;;;;;;25.75;22.88;;;23.70;99.90;;;;;;5073146;28;20055;-73
2022/07/21 09:24:18;;;;;;;25.13;22.50;;;23.90;99.90;;;;;;5076033;28;20044;-73
2022/07/21 09:27:03;;;;;;;24.08;21.35;;;24.10;99.90;;;;;;5076095;28;20135;-72
2022/07/21 09:29:38;;;;;;;26.15;23.48;;;24.20;99.90;;;;;;5059003;28;20045;-73
2022/07/21 09:32:26;;;;;;;27.92;25.17;;;24.20;99.90;;;;;;5075987;28;20039;-73
2022/07/21 09:35:04;;;;;;;28.55;25.73;;;24.10;99.90;;;;;;5075464;28;20501;-73
2022/07/21 09:37:30;;;;;;;29.67;26.67;;;23.90;99.90;;;;;;5075573;28;20408;-72
2022/07/21 09:40:10;;;;;;;30.85;27.65;;;23.80;99.90;;;;;;5058818;28;20044;-73
2022/07/21 09:42:39;;;;;;;32.78;29.55;;;23.60;99.90;;;;;;5075491;28;20072;-73
2022/07/21 09:45:16;;;;;;;33.13;29.70;;;23.40;99.90;;;;;;5075585;28;20123;-73
2022/07/21 09:47:43;;;;;;;34.08;30.48;;;23.30;99.90;;;;;;5075333;28;20462;-73
2022/07/21 09:50:10;;;;;;;34.63;31.27;;;23.20;99.90;;;;;;5075180;28;20048;-72
2022/07/21 09:52:38;;;;;;;33.45;30.10;;;23.10;99.90;;;;;;5075288;28;20033;-73
2022/07/21 09:55:12;;;;;;;35.47;31.92;;;23.10;99.90;;;;;;5075202;28;20032;-73
2022/07/21 09:57:38;;;;;;;37.28;33.25;;;23.10;99.90;;;;;;5075193;28;20040;-73
2022/07/21 10:00:06;;;;;;;37.00;33.15;;;23.20;99.90;;;;;;5075108;28;20045;-73
2022/07/21 10:02:32;;;;;;;36.20;32.55;;;23.20;99.90;;;;;;5075097;28;20047;-73
2022/07/21 10:05:00;;;;;;;37.65;33.40;;;23.10;99.90;;;;;;5074942;28;20040;-73
2022/07/21 10:07:27;;;;;;;38.13;34.25;;;23.00;99.90;;;;;;5074996;28;20036;-72
2022/07/21 10:09:54;;;;;;;40.22;35.85;;;22.90;99.90;;;;;;5074908;28;20065;-73
2022/07/21 10:12:20;;;;;;;41.35;36.97;;;22.80;99.90;;;;;;5074904;28;20116;-73
2022/07/21 10:14:46;;;;;;;41.00;36.67;;;22.60;99.90;;;;;;5058112;28;20068;-72
2022/07/21 10:17:14;;;;;;;41.63;37.25;;;22.50;99.90;;;;;;5074808;28;20041;-72
2022/07/21 10:19:51;;;;;;;43.15;38.60;;;22.40;99.90;;;;;;5074606;28;20075;-72
2022/07/21 10:22:41;;;;;;;43.35;38.70;;;22.30;99.90;;;;;;5074793;28;20037;-72
2022/07/21 10:25:07;;;;;;;43.70;39.00;;;22.20;99.90;;;;;;5074899;28;20404;-72
2022/07/21 10:27:33;;;;;;;46.38;39.83;;;22.10;99.90;;;;;;5074606;28;20040;-72
2022/07/21 10:30:01;;;;;;;43.47;38.88;;;22.10;99.90;;;;;;5074582;28;20041;-72
2022/07/21 10:32:32;;;;;;;44.08;39.30;;;22.10;99.90;;;;;;5074210;28;20039;-72
2022/07/21 10:35:00;;;;;;;42.40;37.90;;;22.10;99.90;;;;;;5074502;28;20146;-72
2022/07/21 10:37:40;;;;;;;41.95;37.53;;;22.10;99.90;;;;;;5074392;28;20445;-72
2022/07/21 10:40:26;;;;;;;41.60;37.05;;;22.10;99.90;;;;;;5074651;28;20044;-72
2022/07/21 10:43:04;;;;;;;42.22;37.60;;;22.10;99.90;;;;;;5057696;28;20090;-72
2022/07/21 10:45:37;;;;;;;41.90;37.38;;;22.10;99.90;;;;;;5074532;28;20480;-73
2022/07/21 10:48:06;;;;;;;40.85;35.72;;;22.10;99.90;;;;;;5075064;28;20104;-72
2022/07/21 10:50:35;;;;;;;40.50;36.10;;;22.10;99.90;;;;;;5074127;28;20523;-72
2022/07/21 10:53:14;;;;;;;42.55;37.60;;;22.10;99.90;;;;;;5074306;28;20086;-72
2022/07/21 10:55:47;;;;;;;42.85;35.63;;;22.20;99.90;;;;;;5074127;28;20032;-72
2022/07/21 10:58:29;;;;;;;42.38;36.42;;;22.30;99.90;;;;;;5057623;28;20082;-72
2022/07/21 11:01:06;;;;;;;40.28;35.88;;;22.30;99.90;;;;;;5057609;28;20037;-72
2022/07/21 11:03:38;;;;;;;39.35;35.28;;;22.40;99.90;;;;;;5074154;28;20040;-72
2022/07/21 11:06:18;;;;;;;41.60;36.60;;;22.40;99.90;;;;;;5073941;28;20505;-73
2022/07/21 11:08:46;;;;;;;43.33;37.40;;;22.40;99.90;;;;;;5073914;28;20055;-73
2022/07/21 11:11:15;;;;;;;39.78;35.58;;;22.50;99.90;;;;;;5073825;28;20078;-73
2022/07/21 11:14:20;;;;;;;36.28;32.50;;;22.60;99.90;;;;;;5073750;28;20037;-73
2022/07/21 11:16:49;;;;;;;39.45;35.15;;;22.80;99.90;;;;;;5072880;28;20044;-73
2022/07/21 11:19:37;;;;;;;33.67;30.15;;;23.00;99.90;;;;;;5073624;28;20040;-73
2022/07/21 11:22:06;;;;;;;36.38;32.47;;;23.20;99.90;;;;;;5073988;28;20052;-73
2022/07/21 11:24:32;;;;;;;31.67;28.45;;;23.40;99.90;;;;;;5073833;28;20400;-72
2022/07/21 11:27:06;;;;;;;31.92;28.52;;;23.70;99.90;;;;;;5073770;28;20041;-73
2022/07/21 11:29:34;;;;;;;34.15;27.73;;;24.00;99.90;;;;;;5073610;28;20378;-73
2022/07/21 11:32:01;;;;;;;30.40;27.27;;;24.10;99.90;;;;;;5073458;28;20041;-73
2022/07/21 11:34:40;;;;;;;29.77;26.63;;;24.10;99.90;;;;;;5056970;28;20036;-73
2022/07/21 11:37:05;;;;;;;35.40;28.45;;;24.00;99.90;;;;;;5073400;28;20072;-73
2022/07/21 11:39:31;;;;;;;31.38;27.00;;;23.90;99.90;;;;;;5073267;28;20076;-73
2022/07/21 11:42:03;;;;;;;31.15;27.92;;;23.80;99.90;;;;;;5056650;28;20119;-73
2022/07/21 11:44:28;;;;;;;30.57;27.37;;;23.70;99.90;;;;;;5056131;28;20108;-73
2022/07/21 11:47:00;;;;;;;34.05;30.38;;;23.60;99.90;;;;;;5056585;28;20496;-73
2022/07/21 11:49:25;;;;;;;33.03;29.52;;;23.60;99.90;;;;;;5073089;28;20032;-73
2022/07/21 11:52:05;;;;;;;34.22;30.60;;;23.60;99.90;;;;;;5073066;28;20094;-73
2022/07/21 11:54:35;;;;;;;32.30;28.85;;;23.60;99.90;;;;;;5073171;28;20405;-73
2022/07/21 11:57:03;;;;;;;30.92;27.42;;;23.50;99.90;;;;;;5072958;28;20037;-73
2022/07/21 11:59:30;;;;;;;32.28;28.85;;;23.40;99.90;;;;;;5072883;28;20432;-73
2022/07/21 12:02:00;;;;;;;31.50;28.15;;;23.40;99.90;;;;;;5073137;28;20044;-73
2022/07/21 12:04:38;;;;;;;31.35;28.25;;;23.70;99.90;;;;;;5072826;28;20047;-73
2022/07/21 12:07:10;;;;;;;30.92;27.80;;;24.10;99.90;;;;;;5056149;28;20048;-75
2022/07/21 12:09:36;;;;;;;33.30;29.25;;;24.50;99.90;;;;;;5072700;28;20040;-74
2022/07/21 12:12:02;;;;;;;32.17;28.85;;;24.80;99.90;;;;;;5072979;28;20464;-74
2022/07/21 12:14:42;;;;;;;30.67;27.50;;;25.00;99.90;;;;;;5072677;28;20590;-74
2022/07/21 12:17:08;;;;;;;31.65;28.15;;;25.10;99.90;;;;;;5056229;28;20539;-74
2022/07/21 12:19:33;;;;;;;31.42;28.10;;;24.90;99.90;;;;;;5055822;28;20485;-74
2022/07/21 12:21:59;;;;;;;27.45;24.67;;;24.80;99.90;;;;;;5072553;28;20037;-74
2022/07/21 12:24:49;;;;;;;25.02;22.25;;;24.60;99.90;;;;;;5072450;28;20044;-74
2022/07/21 12:27:16;;;;;;;27.73;24.90;;;24.50;99.90;;;;;;5072682;28;20044;-74
2022/07/21 12:29:42;;;;;;;27.92;24.45;;;24.30;99.90;;;;;;5072374;28;20423;-74
2022/07/21 12:32:08;;;;;;;28.33;24.88;;;24.00;99.90;;;;;;5072321;28;20489;-74